Church View, Virginia
Current Conditions -  °F | °C
As of 1:55 AM on Thursday 23 Oct 2014 (Local Time) from KFYJ Reporting Station
Overcast Overcast  
Wind Chill: 55°   Ceiling: 5000
Heat Index: 55°   Visibility: 10mi
Dew Point: 43°   Wind: 12mph
Humidity: 63%   Direction: 290°WNW
Pressure: 29.91"   Gusts: 18mph
Location:  37.68°N, 76.68°W
Report Text: KFYJ 230555Z AUTO 29010G16KT 10SM OVC050 13/06 A2991 RMK AO2 T01300060 10137 20130 401450127
Loading
Personal Weather Stations






























Interactive Weather Map
Tropical Storm Tracking
New forecast layout! Learn more

10-Day Weather Forecast

Advertisements
Track Severe Weather on mobile